createdAt,value
2022-12-14T00:09:22.655Z,80.53
2022-12-14T00:19:43.986Z,80.58
2022-12-14T00:30:14.197Z,80.44
2022-12-14T00:40:35.530Z,80.65
2022-12-14T00:50:57.023Z,81.01
2022-12-14T01:01:18.541Z,80.44
2022-12-14T01:11:39.986Z,80.30
2022-12-14T01:22:01.417Z,80.19
2022-12-14T01:32:23.206Z,80.08
2022-12-14T01:42:44.530Z,79.45
2022-12-14T01:53:08.554Z,79.46
2022-12-14T02:03:32.537Z,79.71
2022-12-14T02:13:54.131Z,78.96
2022-12-14T02:24:15.440Z,79.46
2022-12-14T02:34:55.615Z,79.75
2022-12-14T02:45:39.389Z,79.60
2022-12-14T02:56:03.665Z,79.34
2022-12-14T03:06:27.912Z,78.74
2022-12-14T03:16:50.462Z,79.08
2022-12-14T03:27:30.205Z,79.09
2022-12-14T03:37:57.050Z,79.19
2022-12-14T03:48:30.175Z,79.68
2022-12-14T03:59:02.513Z,78.42
2022-12-14T04:09:36.012Z,78.81
2022-12-14T04:20:19.901Z,77.87
2022-12-14T04:30:41.545Z,78.72
2022-12-14T04:41:05.716Z,77.61
2022-12-14T04:51:31.248Z,77.78
2022-12-14T05:01:58.887Z,77.37
2022-12-14T05:12:23.651Z,78.17
2022-12-14T05:22:45.055Z,78.17
2022-12-14T05:33:06.579Z,78.34
2022-12-14T05:43:28.204Z,78.53
2022-12-14T05:53:49.863Z,78.07
2022-12-14T06:04:11.928Z,78.43
2022-12-14T06:14:33.299Z,77.78
2022-12-14T06:24:54.674Z,77.53
2022-12-14T06:35:16.087Z,78.30
2022-12-14T06:45:38.599Z,78.54
2022-12-14T06:56:07.336Z,78.15
2022-12-14T07:06:31.479Z,78.20
2022-12-14T07:16:53.084Z,78.56
2022-12-14T07:27:17.123Z,78.84
2022-12-14T07:37:38.521Z,78.17
2022-12-14T07:47:59.943Z,78.04
2022-12-14T07:58:21.451Z,76.51
2022-12-14T08:08:42.913Z,77.50
2022-12-14T08:19:04.329Z,76.94
2022-12-14T08:29:25.668Z,78.40
2022-12-14T08:39:47.777Z,78.13
2022-12-14T08:50:11.010Z,78.12
2022-12-14T09:00:32.730Z,78.92
2022-12-14T09:10:54.134Z,79.66
2022-12-14T09:21:15.950Z,79.84
2022-12-14T09:31:37.377Z,79.55
2022-12-14T09:42:11.442Z,78.26
2022-12-14T09:52:41.460Z,78.49
2022-12-14T10:03:21.792Z,77.92
2022-12-14T10:13:49.662Z,77.35
2022-12-14T10:24:17.665Z,78.37
2022-12-14T10:34:40.299Z,77.95
2022-12-14T10:45:39.912Z,79.04
2022-12-14T10:55:58.741Z,78.01
2022-12-14T11:06:20.417Z,78.04
2022-12-14T11:16:41.951Z,78.90
2022-12-14T11:27:03.892Z,78.96
2022-12-14T11:37:26.066Z,79.49
2022-12-14T11:48:07.354Z,78.69
2022-12-14T11:58:32.065Z,78.38
2022-12-14T12:09:03.720Z,78.37
2022-12-14T12:19:28.349Z,77.78
2022-12-14T12:29:49.681Z,78.26
2022-12-14T12:40:21.035Z,77.51
2022-12-14T12:50:49.774Z,77.33
2022-12-14T13:01:38.091Z,77.43
2022-12-14T13:12:00.578Z,76.82
2022-12-14T13:22:29.602Z,75.24
2022-12-14T13:32:50.945Z,75.85
2022-12-14T13:43:35.538Z,76.67
2022-12-14T13:53:59.245Z,77.12
2022-12-14T14:04:22.939Z,77.27
2022-12-14T14:14:47.419Z,76.38
2022-12-14T14:25:27.526Z,76.00
2022-12-14T14:35:49.758Z,76.41
2022-12-14T14:46:13.571Z,76.09
2022-12-14T14:56:38.420Z,77.53
2022-12-14T15:07:03.260Z,78.30
2022-12-14T15:17:25.121Z,78.34
2022-12-14T15:27:46.979Z,78.50
2022-12-14T15:38:14.433Z,77.79
2022-12-14T15:48:36.257Z,78.45
2022-12-14T15:58:58.791Z,78.00
2022-12-14T16:09:28.773Z,78.94
2022-12-14T16:20:16.119Z,78.69
2022-12-14T16:30:37.565Z,79.40
2022-12-14T16:41:00.774Z,79.20
2022-12-14T16:51:51.011Z,79.60
2022-12-14T17:02:20.595Z,79.49
2022-12-14T17:12:43.912Z,80.03
2022-12-14T17:23:07.632Z,80.26
2022-12-14T17:33:29.635Z,80.24
2022-12-14T17:43:56.823Z,80.36
2022-12-14T17:54:19.384Z,80.25
2022-12-14T18:04:41.030Z,80.05
2022-12-14T18:15:02.386Z,80.27
2022-12-14T18:25:32.334Z,80.28
2022-12-14T18:35:54.654Z,80.45
2022-12-14T18:46:16.397Z,80.59
2022-12-14T18:56:40.452Z,79.93
2022-12-14T19:07:02.077Z,80.94
2022-12-14T19:17:23.557Z,80.88
2022-12-14T19:28:25.842Z,80.61
2022-12-14T19:38:28.282Z,81.20
2022-12-14T19:48:50.113Z,80.70
2022-12-14T19:59:11.463Z,80.16
2022-12-14T20:09:32.935Z,80.31
2022-12-14T20:19:54.289Z,80.90
2022-12-14T20:30:15.666Z,80.40
2022-12-14T20:40:38.951Z,80.50
2022-12-14T20:51:01.699Z,80.84
2022-12-14T21:01:23.256Z,80.31
2022-12-14T21:12:05.002Z,80.12
2022-12-14T21:22:27.654Z,80.22
2022-12-14T21:32:49.389Z,80.12
2022-12-14T21:43:12.732Z,80.46
2022-12-14T21:53:35.515Z,80.40
2022-12-14T22:03:57.123Z,80.13
2022-12-14T22:14:19.946Z,81.10
2022-12-14T22:24:41.375Z,80.31
2022-12-14T22:35:02.897Z,80.16
2022-12-14T22:45:24.277Z,80.28
2022-12-14T22:55:49.977Z,80.13
2022-12-14T23:06:15.572Z,80.05
2022-12-14T23:16:55.890Z,79.46
2022-12-14T23:27:36.130Z,80.05
2022-12-14T23:38:21.466Z,80.54
2022-12-14T23:49:01.466Z,80.46
2022-12-14T23:59:41.576Z,79.98
